Time;durP1;ratioP1;P1;durP2;ratioP2;P2;SDS_P1;SDS_P2;PMS_P1;PMS_P2;Temp;Humidity;BMP_temperature;BMP_pressure;BME280_temperature;BME280_humidity;BME280_pressure;Samples;Min_cycle;Max_cycle;Signal;HPM_P1;HPM_P2
2023/09/12 00:00:24;330990.00;1.10;571.19;37851.00;0.13;66.17;;;;;22.90;1.00;;;;;;2276217;61;1418;-88
2023/09/12 00:02:51;359438.00;1.20;620.08;18294.00;0.06;32.32;;;;;22.80;1.00;;;;;;2276333;61;1661;-88
2023/09/12 00:05:21;336107.00;1.12;579.98;24180.00;0.08;42.51;;;;;22.70;1.00;;;;;;2276394;61;1052;-88
2023/09/12 00:07:48;173072.00;0.58;299.56;0.00;0.00;0.62;;;;;22.80;1.00;;;;;;2276299;61;1561;-87
2023/09/12 00:10:15;227053.00;0.76;392.48;0.00;0.00;0.62;;;;;22.70;1.00;;;;;;2276386;61;1412;-87
2023/09/12 00:12:42;669883.00;2.23;1155.05;45973.00;0.15;80.22;;;;;22.80;1.00;;;;;;2276275;61;1465;-88
2023/09/12 00:15:09;727289.00;2.42;1254.59;146788.00;0.49;254.27;;;;;22.50;1.00;;;;;;2276334;61;925;-88
2023/09/12 00:17:37;104251.00;0.35;180.91;0.00;0.00;0.62;;;;;22.60;1.00;;;;;;2276317;61;1907;-89
2023/09/12 00:20:06;189695.00;0.63;328.18;22102.00;0.07;38.91;;;;;22.50;1.00;;;;;;2276300;61;1722;-89
2023/09/12 00:22:36;313369.00;1.04;540.90;23760.00;0.08;41.78;;;;;22.50;1.00;;;;;;2276176;61;1679;-87
2023/09/12 00:25:04;433156.00;1.44;746.81;58468.00;0.19;101.83;;;;;22.30;1.00;;;;;;2276377;61;1007;-87
2023/09/12 00:27:31;249322.00;0.83;430.78;0.00;0.00;0.62;;;;;22.50;1.00;;;;;;2276299;61;1630;-87
2023/09/12 00:29:58;184704.00;0.62;319.59;12709.00;0.04;22.64;;;;;22.50;1.00;;;;;;2276309;61;1336;-87
2023/09/12 00:32:25;149335.00;0.50;258.66;0.00;0.00;0.62;;;;;22.40;1.00;;;;;;2276238;61;939;-88
2023/09/12 00:34:52;430656.00;1.44;742.51;112055.00;0.37;194.38;;;;;22.20;1.00;;;;;;2276275;61;1620;-88
2023/09/12 00:37:19;272828.00;0.91;471.21;4472.00;0.01;8.37;;;;;22.10;1.00;;;;;;2276262;61;1617;-88
2023/09/12 00:39:48;152160.00;0.51;263.53;0.00;0.00;0.62;;;;;22.20;1.00;;;;;;2276272;61;2005;-87
2023/09/12 00:42:16;89441.00;0.30;155.34;5975.00;0.02;10.98;;;;;22.10;1.00;;;;;;2276245;61;1038;-88
2023/09/12 00:44:43;230092.00;0.77;397.71;0.00;0.00;0.62;;;;;22.10;1.00;;;;;;2276195;61;1665;-87
2023/09/12 00:47:12;333912.00;1.11;576.21;31833.00;0.11;55.76;;;;;21.90;1.00;;;;;;2276115;61;1579;-88
2023/09/12 00:49:41;210532.00;0.70;364.05;0.00;0.00;0.62;;;;;22.00;1.00;;;;;;2276209;61;1567;-87
2023/09/12 00:52:10;464069.00;1.55;799.98;19113.00;0.06;33.73;;;;;21.90;1.00;;;;;;2276108;61;1618;-86
2023/09/12 00:54:37;273826.00;0.91;472.92;14569.00;0.05;25.86;;;;;21.90;1.00;;;;;;2276136;61;918;-87
2023/09/12 00:57:08;571711.00;1.91;985.40;79779.00;0.27;138.66;;;;;21.60;1.00;;;;;;2276192;61;1488;-87
2023/09/12 00:59:35;187440.00;0.62;324.30;0.00;0.00;0.62;;;;;21.30;1.00;;;;;;2276207;61;2002;-87
2023/09/12 01:02:02;351442.00;1.17;606.34;58815.00;0.20;102.43;;;;;21.10;1.10;;;;;;2276037;61;1745;-88
2023/09/12 01:04:30;305960.00;1.02;528.17;52394.00;0.17;91.33;;;;;20.80;1.60;;;;;;2276163;61;1573;-87
2023/09/12 01:06:57;38136.00;0.13;66.66;0.00;0.00;0.62;;;;;20.70;2.50;;;;;;2276134;61;1063;-87
2023/09/12 01:09:25;316030.00;1.05;545.47;23654.00;0.08;41.60;;;;;20.80;2.70;;;;;;2276086;61;1566;-86
2023/09/12 01:11:52;299220.00;1.00;516.58;0.00;0.00;0.62;;;;;20.90;2.10;;;;;;2276167;61;1107;-87
2023/09/12 01:14:20;221414.00;0.74;382.78;0.00;0.00;0.62;;;;;21.00;1.60;;;;;;2276085;61;963;-87
2023/09/12 01:16:50;39346.00;0.13;68.76;0.00;0.00;0.62;;;;;21.10;1.40;;;;;;2276174;61;974;-88
2023/09/12 01:19:19;155868.00;0.52;269.92;0.00;0.00;0.62;;;;;21.00;2.20;;;;;;2276081;61;2010;-87
2023/09/12 01:22:08;387854.00;1.29;668.93;34308.00;0.11;60.04;;;;;20.90;3.20;;;;;;2276171;61;1023;-87
2023/09/12 01:25:14;134069.00;0.45;232.35;0.00;0.00;0.62;;;;;20.70;4.50;;;;;;2276064;61;1436;-88
2023/09/12 01:27:45;225032.00;0.75;389.00;0.00;0.00;0.62;;;;;20.80;4.20;;;;;;2275883;61;1573;-86
2023/09/12 01:30:17;116928.00;0.39;202.78;0.00;0.00;0.62;;;;;21.00;3.20;;;;;;2276092;61;1426;-86
2023/09/12 01:32:45;0.00;0.00;0.62;0.00;0.00;0.62;;;;;21.10;3.20;;;;;;2276088;61;1118;-87
2023/09/12 01:35:12;103191.00;0.34;179.08;0.00;0.00;0.62;;;;;21.00;2.90;;;;;;2276079;61;964;-87
2023/09/12 01:37:40;298203.00;0.99;514.83;0.00;0.00;0.62;;;;;20.90;3.30;;;;;;2276148;61;1036;-88
2023/09/12 01:40:08;240259.00;0.80;415.20;27006.00;0.09;47.40;;;;;21.00;2.90;;;;;;2276025;61;2010;-87
2023/09/12 01:42:39;155052.00;0.52;268.51;0.00;0.00;0.62;;;;;21.10;2.20;;;;;;2276035;61;1081;-86
2023/09/12 01:45:10;282276.00;0.94;487.45;0.00;0.00;0.62;;;;;20.90;3.30;;;;;;2276043;61;1521;-88
2023/09/12 01:47:39;246187.00;0.82;425.39;18579.00;0.06;32.81;;;;;20.70;3.80;;;;;;2276056;61;1473;-88
2023/09/12 01:50:12;221115.00;0.74;382.26;11592.00;0.04;20.71;;;;;20.80;3.70;;;;;;2276010;61;1743;-87
2023/09/12 01:52:41;214745.00;0.72;371.30;0.00;0.00;0.62;;;;;20.80;3.70;;;;;;2275958;61;1473;-88
2023/09/12 01:55:10;111674.00;0.37;193.72;0.00;0.00;0.62;;;;;20.90;3.30;;;;;;2276055;61;1112;-87
2023/09/12 01:57:38;118930176.00;396.43;68142784.00;0.00;0.00;0.62;;;;;20.90;2.90;;;;;;2276118;61;990;-88
2023/09/12 02:00:07;0.00;0.00;0.62;0.00;0.00;0.62;;;;;20.90;1.40;;;;;;2275981;61;2030;-89
2023/09/12 02:02:34;61941.00;0.21;107.83;0.00;0.00;0.62;;;;;21.10;1.00;;;;;;2275926;61;1152;-88
2023/09/12 02:05:10;131753.00;0.44;228.35;0.00;0.00;0.62;;;;;21.10;1.00;;;;;;2276000;61;963;-88
2023/09/12 02:07:39;468490.00;1.56;807.59;27507.00;0.09;48.27;;;;;21.20;1.00;;;;;;2276056;61;1046;-86
2023/09/12 02:10:11;228051.00;0.76;394.20;38742.00;0.13;67.71;;;;;21.10;1.00;;;;;;2275995;61;1384;-87
2023/09/12 02:12:38;59505.00;0.20;103.62;0.00;0.00;0.62;;;;;21.10;1.00;;;;;;2276050;61;1072;-87
2023/09/12 02:15:08;299837.00;1.00;517.64;0.00;0.00;0.62;;;;;21.20;1.00;;;;;;2276024;61;1002;-88
2023/09/12 02:17:35;44815.00;0.15;78.22;0.00;0.00;0.62;;;;;21.20;1.00;;;;;;2276027;61;970;-88
2023/09/12 02:20:04;226985.00;0.76;392.36;52998.00;0.18;92.37;;;;;21.20;1.00;;;;;;2276338;61;1907;-88
2023/09/12 02:22:31;440772.00;1.47;759.91;112644.00;0.38;195.39;;;;;21.30;1.00;;;;;;2276685;61;960;-87
2023/09/12 02:24:58;52809.00;0.18;92.04;0.00;0.00;0.62;;;;;21.50;1.00;;;;;;2276700;61;984;-88
2023/09/12 02:27:25;117134344.00;390.45;65099656.00;116831072.00;389.44;64594880.00;;;;;21.30;1.00;;;;;;2276701;61;1098;-86
2023/09/12 02:29:52;117565888.00;391.89;65822472.00;116962248.00;389.87;64812876.00;;;;;21.30;1.00;;;;;;2276740;61;1370;-88
2023/09/12 02:32:20;117057456.00;390.19;64971436.00;116847128.00;389.49;64621528.00;;;;;21.30;1.00;;;;;;2276664;61;1073;-87
2023/09/12 02:34:47;686010.00;2.29;1182.99;102029.00;0.34;177.07;;;;;21.40;1.00;;;;;;2276601;61;984;-87
2023/09/12 02:37:15;340904.00;1.14;588.23;119796.00;0.40;207.73;;;;;21.30;1.00;;;;;;2276638;61;2211;-88
2023/09/12 02:39:42;260614.00;0.87;450.20;72471.00;0.24;126.03;;;;;21.30;1.00;;;;;;2276565;61;2008;-87
2023/09/12 02:42:09;257943.00;0.86;445.61;71177.00;0.24;123.79;;;;;21.40;1.00;;;;;;2276580;61;1071;-88
2023/09/12 02:44:36;366121.00;1.22;631.57;71554.00;0.24;124.45;;;;;21.40;1.00;;;;;;2276632;61;929;-86
2023/09/12 02:47:03;257083.00;0.86;444.13;99332.00;0.33;172.42;;;;;21.40;1.00;;;;;;2276697;61;1090;-88
2023/09/12 02:49:32;166901.00;0.56;288.93;0.00;0.00;0.62;;;;;21.40;1.00;;;;;;2276619;61;1243;-86
2023/09/12 02:51:58;325930.00;1.09;562.49;72436.00;0.24;125.97;;;;;21.20;1.00;;;;;;2276583;61;901;-86
2023/09/12 02:54:25;537057.00;1.79;925.65;141469.00;0.47;245.10;;;;;21.20;1.00;;;;;;2276554;61;2152;-89
2023/09/12 02:56:52;270803.00;0.90;467.72;49068.00;0.16;85.57;;;;;21.10;1.00;;;;;;2276691;61;1040;-87
2023/09/12 02:59:19;34980.00;0.12;61.20;0.00;0.00;0.62;;;;;21.10;1.00;;;;;;2276614;61;2004;-87
2023/09/12 03:01:46;95960.00;0.32;166.60;0.00;0.00;0.62;;;;;21.10;1.00;;;;;;2276636;61;1115;-88
2023/09/12 03:04:12;0.00;0.00;0.62;0.00;0.00;0.62;;;;;21.20;1.00;;;;;;2276870;61;1066;-87
2023/09/12 03:06:43;189396.00;0.63;327.67;0.00;0.00;0.62;;;;;21.10;1.00;;;;;;2276794;61;1603;-87
2023/09/12 03:09:11;97439.00;0.32;169.15;0.00;0.00;0.62;;;;;21.00;1.00;;;;;;2276820;61;1356;-87
2023/09/12 03:11:37;139087.00;0.46;241.00;20438.00;0.07;36.03;;;;;21.00;1.00;;;;;;2276839;61;1040;-88
2023/09/12 03:16:34;518139.00;1.73;893.06;65033.00;0.22;113.18;;;;;21.00;1.00;;;;;;2282825;61;1405;-86
2023/09/12 03:19:01;277448.00;0.92;479.15;72460.00;0.24;126.01;;;;;21.20;1.00;;;;;;2280851;60;1994;-87
2023/09/12 03:21:28;300794.00;1.00;519.28;96031.00;0.32;166.72;;;;;21.00;1.00;;;;;;2280925;60;1078;-87
2023/09/12 03:23:56;332611.00;1.11;573.97;82932.00;0.28;144.10;;;;;20.90;1.00;;;;;;2280855;60;1058;-87
2023/09/12 03:26:22;471850.00;1.57;813.37;130328.00;0.43;225.89;;;;;20.80;1.00;;;;;;2280887;60;1071;-87
2023/09/12 03:28:50;170574.00;0.57;295.26;75668.00;0.25;131.55;;;;;20.70;1.00;;;;;;2280831;60;1394;-88
2023/09/12 03:31:17;243897.00;0.81;421.45;74449.00;0.25;129.45;;;;;20.60;1.00;;;;;;2280825;60;1126;-87
2023/09/12 03:33:49;340342.00;1.13;587.26;67613.00;0.23;117.64;;;;;20.50;1.00;;;;;;2280823;60;1126;-86
2023/09/12 03:36:16;216654.00;0.72;374.59;25499.00;0.08;44.79;;;;;20.30;1.40;;;;;;2280839;60;1592;-87
2023/09/12 03:38:43;514025.00;1.71;885.97;86362.00;0.29;150.03;;;;;20.20;2.50;;;;;;2280807;60;1919;-88
2023/09/12 03:41:12;228869.00;0.76;395.60;76483.00;0.25;132.96;;;;;20.20;2.30;;;;;;2280820;60;1110;-88
2023/09/12 03:43:39;311891.00;1.04;538.36;71962.00;0.24;125.15;;;;;20.20;3.10;;;;;;2280828;60;1070;-87
2023/09/12 03:46:05;438097.00;1.46;755.31;67884.00;0.23;118.10;;;;;20.20;2.60;;;;;;2280847;60;1086;-88
2023/09/12 03:48:32;643496.00;2.14;1109.39;74611.00;0.25;129.73;;;;;20.40;2.30;;;;;;2280782;60;1338;-88
2023/09/12 03:50:59;247111.00;0.82;426.98;59981.00;0.20;104.44;;;;;20.60;1.70;;;;;;2280761;60;1517;-88
2023/09/12 03:53:27;444408.00;1.48;766.16;71554.00;0.24;124.45;;;;;20.20;2.90;;;;;;2280691;60;1098;-87
2023/09/12 03:55:54;233725.00;0.78;403.96;67171.00;0.22;116.87;;;;;19.80;4.50;;;;;;2280773;60;1039;-88
2023/09/12 03:58:23;627478.00;2.09;1081.69;180531.00;0.60;312.40;;;;;19.50;5.80;;;;;;2280733;60;1264;-88
2023/09/12 04:00:50;534338.00;1.78;920.97;221026.00;0.74;382.11;;;;;19.10;7.40;;;;;;2280719;60;2012;-87
2023/09/12 04:03:17;360407.00;1.20;621.75;101374.00;0.34;175.94;;;;;19.20;7.50;;;;;;2280663;60;1150;-87
2023/09/12 04:05:43;198942.00;0.66;344.10;62260.00;0.21;108.38;;;;;19.20;7.80;;;;;;2280714;60;949;-87
2023/09/12 04:08:10;379569.00;1.27;654.68;73443.00;0.24;127.71;;;;;19.50;6.20;;;;;;2280727;60;1043;-86
2023/09/12 04:10:37;335026.00;1.12;578.12;75747.00;0.25;131.69;;;;;19.80;5.40;;;;;;2280719;60;1270;-87
2023/09/12 04:13:04;367190.00;1.22;633.41;126006.00;0.42;218.44;;;;;20.00;4.10;;;;;;2280725;60;1114;-88
2023/09/12 04:15:34;487461.00;1.62;840.24;80284.00;0.27;139.53;;;;;20.00;3.50;;;;;;2280660;60;1026;-88
2023/09/12 04:18:03;809181.00;2.70;1397.14;164540.00;0.55;284.86;;;;;19.90;3.90;;;;;;2280709;60;1155;-87
2023/09/12 04:20:30;413119.00;1.38;712.36;74903.00;0.25;130.23;;;;;19.70;4.90;;;;;;2280617;60;2005;-85
2023/09/12 04:22:57;462469.00;1.54;797.23;119633.00;0.40;207.45;;;;;19.50;5.80;;;;;;2280660;60;1026;-86
2023/09/12 04:25:24;317795.00;1.06;548.51;63587.00;0.21;110.68;;;;;19.70;5.80;;;;;;2280655;60;1102;-87
2023/09/12 04:27:51;249456.00;0.83;431.02;74120.00;0.25;128.88;;;;;19.70;5.50;;;;;;2280662;60;1407;-88
2023/09/12 04:30:18;388767.00;1.30;670.50;62402.00;0.21;108.63;;;;;19.80;5.20;;;;;;2280566;60;1404;-86
2023/09/12 04:32:46;356641.00;1.19;615.28;57217.00;0.19;99.67;;;;;19.80;4.40;;;;;;2280583;60;1520;-87
2023/09/12 04:35:13;547575.00;1.83;943.78;72718.00;0.24;126.46;;;;;20.10;3.50;;;;;;2280657;60;918;-87
2023/09/12 04:37:40;540015.00;1.80;930.75;229414.00;0.76;396.54;;;;;20.00;3.10;;;;;;2280593;60;1922;-87
2023/09/12 04:40:09;210509.00;0.70;364.01;80140.00;0.27;139.28;;;;;20.10;3.10;;;;;;2280554;60;1914;-87
2023/09/12 04:42:35;355492.00;1.18;613.30;76008.00;0.25;132.14;;;;;20.00;3.40;;;;;;2280397;60;1492;-87
2023/09/12 04:45:03;223350.00;0.74;386.11;15392.00;0.05;27.29;;;;;20.10;2.90;;;;;;2280630;60;1172;-87
2023/09/12 04:47:30;317162.00;1.06;547.42;95850.00;0.32;166.41;;;;;20.10;3.60;;;;;;2280628;60;1035;-87
2023/09/12 04:49:58;142697.00;0.48;247.22;3280.00;0.01;6.30;;;;;20.10;3.10;;;;;;2280558;60;1300;-88
2023/09/12 04:52:25;645338.00;2.15;1112.57;189206.00;0.63;327.34;;;;;20.00;3.50;;;;;;2280535;60;1590;-88
2023/09/12 04:54:52;0.00;0.00;0.62;0.00;0.00;0.62;;;;;20.10;3.00;;;;;;2280604;60;946;-87
2023/09/12 04:57:19;376635.00;1.26;649.64;0.00;0.00;0.62;;;;;20.10;3.10;;;;;;2280657;60;1078;-87
2023/09/12 04:59:46;0.00;0.00;0.62;0.00;0.00;0.62;;;;;19.90;3.20;;;;;;2280543;60;2004;-88
2023/09/12 05:02:12;24839.00;0.08;43.65;0.00;0.00;0.62;;;;;20.10;2.70;;;;;;2280555;60;1106;-87
2023/09/12 05:04:39;0.00;0.00;0.62;0.00;0.00;0.62;;;;;20.20;2.60;;;;;;2280580;60;1082;-87
2023/09/12 05:09:36;373566.00;1.25;644.37;0.00;0.00;0.62;;;;;20.10;2.70;;;;;;2274113;61;1400;-89
2023/09/12 05:12:03;511913.00;1.71;882.34;39027.00;0.13;68.20;;;;;20.00;3.00;;;;;;2137147;40;3601;-86
2023/09/12 05:14:30;432551.00;1.44;745.77;15877.00;0.05;28.13;;;;;20.10;3.30;;;;;;2280565;60;1015;-88
2023/09/12 05:16:57;622086.00;2.07;1072.37;94182.00;0.31;163.53;;;;;20.10;2.40;;;;;;2280481;60;1051;-87
2023/09/12 05:19:27;403259.00;1.34;695.41;0.00;0.00;0.62;;;;;20.10;2.40;;;;;;2278415;60;1923;-86
2023/09/12 05:21:53;152537.00;0.51;264.18;0.00;0.00;0.62;;;;;20.10;2.10;;;;;;2276481;61;1715;-86
2023/09/12 05:24:20;335486.00;1.12;578.92;28910.00;0.10;50.70;;;;;20.30;2.20;;;;;;2276483;61;1048;-88
2023/09/12 05:26:49;456353.00;1.52;786.71;0.00;0.00;0.62;;;;;20.30;1.40;;;;;;2276518;61;1010;-88
2023/09/12 05:29:17;86701.00;0.29;150.61;0.00;0.00;0.62;;;;;20.60;1.90;;;;;;2276355;61;1305;-89
2023/09/12 05:31:43;152412.00;0.51;263.96;0.00;0.00;0.62;;;;;21.00;1.10;;;;;;2276375;61;1533;-89
2023/09/12 05:34:10;205769.00;0.69;355.85;50971.00;0.17;88.87;;;;;21.60;1.00;;;;;;2276411;61;1016;-88
2023/09/12 05:36:37;294774.00;0.98;508.94;0.00;0.00;0.62;;;;;22.30;1.00;;;;;;2276341;61;955;-88
2023/09/12 05:39:05;475410.00;1.58;819.50;23541.00;0.08;41.40;;;;;22.90;1.00;;;;;;2276368;61;1392;-86
2023/09/12 05:41:32;320958.00;1.07;553.94;0.00;0.00;0.62;;;;;23.50;1.00;;;;;;2276338;61;1926;-88
2023/09/12 05:44:00;273198.00;0.91;471.84;0.00;0.00;0.62;;;;;24.10;1.00;;;;;;2276344;61;1435;-88
2023/09/12 05:46:27;253684.00;0.85;438.29;0.00;0.00;0.62;;;;;24.60;1.00;;;;;;2276330;61;995;-87
2023/09/12 05:48:53;76344.00;0.25;132.72;0.00;0.00;0.62;;;;;25.10;1.00;;;;;;2276360;61;1299;-87
2023/09/12 05:51:20;294103.00;0.98;507.78;56170.00;0.19;97.86;;;;;25.70;1.00;;;;;;2276336;61;1605;-87
2023/09/12 05:53:47;154802.00;0.52;268.08;0.00;0.00;0.62;;;;;25.90;1.00;;;;;;2276086;61;2185;-87
2023/09/12 05:56:14;171224.00;0.57;296.37;0.00;0.00;0.62;;;;;25.80;1.00;;;;;;2276322;61;932;-88
2023/09/12 05:58:42;24217.00;0.08;42.57;0.00;0.00;0.62;;;;;26.10;1.00;;;;;;2276256;61;1547;-86
2023/09/12 06:01:10;25371.00;0.08;44.57;0.00;0.00;0.62;;;;;26.80;1.00;;;;;;2276234;61;2004;-86
2023/09/12 06:03:37;78775.00;0.26;136.92;0.00;0.00;0.62;;;;;27.00;1.00;;;;;;2276284;61;948;-86
2023/09/12 06:06:04;140192.00;0.47;242.90;31856.00;0.11;55.80;;;;;27.60;1.00;;;;;;2276348;61;1039;-88
2023/09/12 06:08:31;131524.00;0.44;227.96;0.00;0.00;0.62;;;;;28.10;1.00;;;;;;2276233;61;1343;-86
2023/09/12 06:10:58;345459.00;1.15;596.06;39330.00;0.13;68.73;;;;;27.80;1.00;;;;;;2276280;61;1657;-85
2023/09/12 06:13:25;808966.00;2.70;1396.76;107612.00;0.36;186.71;;;;;28.10;1.00;;;;;;2276274;61;1060;-87
2023/09/12 06:15:52;110516.00;0.37;191.72;0.00;0.00;0.62;;;;;28.60;1.00;;;;;;2276267;61;1042;-88
2023/09/12 06:18:20;112042.00;0.37;194.35;0.00;0.00;0.62;;;;;29.30;1.00;;;;;;2276287;61;1253;-88
2023/09/12 06:20:47;221242.00;0.74;382.48;0.00;0.00;0.62;;;;;29.40;1.00;;;;;;2276202;61;2006;-87
2023/09/12 06:23:14;0.00;0.00;0.62;0.00;0.00;0.62;;;;;29.10;1.00;;;;;;2276251;61;1159;-89
2023/09/12 06:25:41;140349.00;0.47;243.17;0.00;0.00;0.62;;;;;28.40;1.00;;;;;;2276312;61;1073;-89
2023/09/12 06:28:11;285106.00;0.95;492.32;0.00;0.00;0.62;;;;;27.50;1.00;;;;;;2276204;61;1334;-89
2023/09/12 06:30:37;72911.00;0.24;126.79;0.00;0.00;0.62;;;;;26.90;1.00;;;;;;2276151;61;1500;-86
2023/09/12 06:33:05;189059.00;0.63;327.09;19409.00;0.06;34.25;;;;;26.10;1.00;;;;;;2276218;61;1056;-86
2023/09/12 06:35:36;55902.00;0.19;97.39;0.00;0.00;0.62;;;;;25.60;1.00;;;;;;2276226;61;1077;-88
2023/09/12 06:38:03;322086.00;1.07;555.88;82509.00;0.28;143.37;;;;;25.30;1.00;;;;;;2276202;61;1592;-88
2023/09/12 06:40:30;398420.00;1.33;687.09;0.00;0.00;0.62;;;;;25.40;1.00;;;;;;2276161;61;2013;-87
2023/09/12 06:42:57;192408.00;0.64;332.85;0.00;0.00;0.62;;;;;25.20;1.00;;;;;;2276197;61;1595;-86
2023/09/12 06:45:24;89603.00;0.30;155.62;0.00;0.00;0.62;;;;;24.90;1.00;;;;;;2276232;61;1029;-85
2023/09/12 06:47:51;122381.00;0.41;212.19;0.00;0.00;0.62;;;;;24.80;1.00;;;;;;2276213;61;1188;-86
2023/09/12 06:50:17;205256.00;0.68;354.97;0.00;0.00;0.62;;;;;24.80;1.00;;;;;;2276212;61;1373;-85
2023/09/12 06:52:46;285880.00;0.95;493.65;79703.00;0.27;138.52;;;;;24.40;1.00;;;;;;2276232;61;1102;-88
2023/09/12 06:55:13;507223.00;1.69;874.26;87685.00;0.29;152.31;;;;;24.10;1.00;;;;;;2276130;61;1616;-87
2023/09/12 06:57:40;273748.00;0.91;472.79;0.00;0.00;0.62;;;;;24.00;1.00;;;;;;2276080;61;1396;-88
2023/09/12 07:00:08;344523.00;1.15;594.45;0.00;0.00;0.62;;;;;24.00;1.00;;;;;;2276128;61;2009;-87
2023/09/12 07:02:35;154699.00;0.52;267.91;0.00;0.00;0.62;;;;;24.10;1.00;;;;;;2276117;61;1545;-89
2023/09/12 07:05:03;352707.00;1.18;608.51;41533.00;0.14;72.54;;;;;24.00;1.00;;;;;;2276250;61;1525;-88
2023/09/12 07:07:30;59587.00;0.20;103.76;0.00;0.00;0.62;;;;;24.10;1.00;;;;;;2276939;61;1023;-87
2023/09/12 07:09:59;360471.00;1.20;621.86;30766.00;0.10;53.91;;;;;24.00;1.00;;;;;;2276913;61;1264;-86
2023/09/12 07:12:28;128458.00;0.43;222.67;0.00;0.00;0.62;;;;;23.90;1.00;;;;;;2276749;61;1809;-87
2023/09/12 07:14:55;89675.00;0.30;155.75;0.00;0.00;0.62;;;;;23.80;1.00;;;;;;2276853;61;1147;-86
2023/09/12 07:17:23;33549.00;0.11;58.73;0.00;0.00;0.62;;;;;23.90;1.00;;;;;;2276828;61;1459;-87
2023/09/12 07:27:20;1511966.00;5.04;2665.66;0.00;0.00;0.62;;;;;23.80;1.00;;;;;;2171474;56;3560;-86
2023/09/12 07:29:46;410140.00;1.37;707.24;0.00;0.00;0.62;;;;;23.70;1.00;;;;;;2288373;55;3780;-89
2023/09/12 07:39:40;880106.00;2.93;1521.21;71414.00;0.24;124.20;;;;;24.20;1.00;;;;;;2284548;55;3716;-88
2023/09/12 07:44:36;536732.00;1.79;925.09;0.00;0.00;0.62;;;;;24.40;1.00;;;;;;2282897;61;1343;-89
2023/09/12 07:47:03;462204.00;1.54;796.78;95692.00;0.32;166.14;;;;;24.90;1.00;;;;;;2281437;61;1770;-90
2023/09/12 07:54:28;519866.00;1.73;896.03;45100.00;0.15;78.71;;;;;27.60;1.00;;;;;;2293586;39;3568;-88
2023/09/12 08:04:27;817712.00;2.73;1412.03;0.00;0.00;0.62;;;;;29.80;1.00;;;;;;2282272;61;1385;-89
2023/09/12 08:16:56;554380.00;1.85;955.51;0.00;0.00;0.62;;;;;29.30;1.00;;;;;;2282277;61;1346;-89
2023/09/12 08:19:23;268994.00;0.90;464.61;0.00;0.00;0.62;;;;;29.60;1.00;;;;;;2280419;61;1375;-90
2023/09/12 08:24:25;757736.00;2.53;1307.51;56036.00;0.19;97.62;;;;;29.40;1.00;;;;;;2282905;55;3644;-89
2023/09/12 08:29:22;925779.00;3.09;1601.44;76370.00;0.25;132.77;;;;;30.20;1.00;;;;;;2278320;61;1396;-91
2023/09/12 08:31:48;543631.00;1.81;936.98;79435.00;0.26;138.06;;;;;30.20;1.00;;;;;;2276498;61;1705;-90
2023/09/12 08:34:15;466018.00;1.55;803.34;161899.00;0.54;280.31;;;;;30.80;1.00;;;;;;2276548;61;1734;-89
2023/09/12 08:36:42;48119.00;0.16;83.93;0.00;0.00;0.62;;;;;30.90;1.00;;;;;;2276538;61;1706;-90
2023/09/12 08:41:40;471700.00;1.57;813.11;0.00;0.00;0.62;;;;;31.20;1.00;;;;;;2282258;61;1895;-87
2023/09/12 08:44:09;169818.00;0.57;293.95;0.00;0.00;0.62;;;;;31.00;1.00;;;;;;2280650;61;993;-89
2023/09/12 08:51:33;593902.00;1.98;1023.69;9575.00;0.03;17.21;;;;;31.40;1.00;;;;;;2282178;61;1170;-88
2023/09/12 08:54:00;68564.00;0.23;119.28;0.00;0.00;0.62;;;;;31.40;1.00;;;;;;2280462;61;1070;-89
2023/09/12 08:56:28;648750.00;2.16;1118.47;82144.00;0.27;142.74;;;;;31.50;1.00;;;;;;2287911;56;3864;-89
2023/09/12 08:58:57;173451.00;0.58;300.21;0.00;0.00;0.62;;;;;31.00;1.00;;;;;;2279248;60;1744;-90
2023/09/12 09:03:54;498123.00;1.66;858.59;0.00;0.00;0.62;;;;;31.10;1.00;;;;;;2281894;61;1341;-91
2023/09/12 09:06:24;212043.00;0.71;366.65;0.00;0.00;0.62;;;;;31.40;1.00;;;;;;2280477;61;1515;-90
2023/09/12 09:08:51;153749.00;0.51;266.27;0.00;0.00;0.62;;;;;31.20;1.00;;;;;;2280529;61;1409;-89
2023/09/12 09:11:18;359355.00;1.20;619.94;0.00;0.00;0.62;;;;;31.40;1.00;;;;;;2289529;40;3675;-89
2023/09/12 09:13:47;237618.00;0.79;410.65;15255.00;0.05;27.05;;;;;31.40;1.00;;;;;;2280470;60;1003;-89
2023/09/12 09:18:53;654282.00;2.18;1128.05;0.00;0.00;0.62;;;;;31.70;1.00;;;;;;2282292;61;1398;-88
2023/09/12 09:21:24;0.00;0.00;0.62;0.00;0.00;0.62;;;;;31.60;1.00;;;;;;2280251;61;2000;-90
2023/09/12 09:23:51;151741.00;0.51;262.81;45797.00;0.15;79.92;;;;;31.40;1.00;;;;;;2280488;61;1594;-90
2023/09/12 09:26:18;183767.00;0.61;317.98;0.00;0.00;0.62;;;;;31.60;1.00;;;;;;2280489;61;1059;-89
2023/09/12 09:28:46;0.00;0.00;0.62;0.00;0.00;0.62;;;;;32.00;1.00;;;;;;2280351;61;1690;-88
2023/09/12 09:31:13;172338.00;0.57;298.29;0.00;0.00;0.62;;;;;32.30;1.00;;;;;;2280411;61;1533;-89
2023/09/12 09:33:45;371197.00;1.24;640.29;35716.00;0.12;62.48;;;;;32.70;1.00;;;;;;2280370;61;998;-88
2023/09/12 09:36:13;144373.00;0.48;250.11;11491.00;0.04;20.53;;;;;32.90;1.00;;;;;;2280546;61;1144;-89
2023/09/12 09:38:42;169598.00;0.57;293.57;0.00;0.00;0.62;;;;;32.90;1.00;;;;;;2280273;61;1279;-89
2023/09/12 09:41:09;403058.00;1.34;695.06;158141.00;0.53;273.84;;;;;32.50;1.00;;;;;;2280371;61;1998;-90
2023/09/12 09:43:36;216791.00;0.72;374.82;0.00;0.00;0.62;;;;;32.70;1.00;;;;;;2280319;61;926;-89
2023/09/12 09:46:04;469794.00;1.57;809.84;0.00;0.00;0.62;;;;;32.70;1.00;;;;;;2280406;61;1711;-88
2023/09/12 09:48:31;120969.00;0.40;209.75;0.00;0.00;0.62;;;;;32.90;1.00;;;;;;2280340;61;1516;-90
2023/09/12 09:51:02;0.00;0.00;0.62;0.00;0.00;0.62;;;;;33.10;1.00;;;;;;2280264;61;1460;-88
2023/09/12 09:53:33;58489.00;0.19;101.86;0.00;0.00;0.62;;;;;32.90;1.00;;;;;;2280320;61;1149;-89
2023/09/12 09:56:11;0.00;0.00;0.62;0.00;0.00;0.62;;;;;32.70;1.00;;;;;;2280342;61;1672;-90
2023/09/12 09:58:37;85643.00;0.29;148.78;0.00;0.00;0.62;;;;;32.60;1.00;;;;;;2280296;61;1453;-89
2023/09/12 10:01:07;56165.00;0.19;97.85;0.00;0.00;0.62;;;;;32.80;1.00;;;;;;2280280;61;2004;-88
2023/09/12 10:03:37;118976.00;0.40;206.32;29619.00;0.10;51.92;;;;;32.90;1.00;;;;;;2280394;61;998;-89
2023/09/12 10:06:06;286794.00;0.96;495.22;119938.00;0.40;207.98;;;;;32.70;1.00;;;;;;2280366;61;1485;-88
2023/09/12 10:08:36;34797.00;0.12;60.89;0.00;0.00;0.62;;;;;32.50;1.00;;;;;;2280432;61;1256;-90
2023/09/12 10:11:04;30898.00;0.10;54.14;0.00;0.00;0.62;;;;;32.90;1.00;;;;;;2280323;61;1013;-90
2023/09/12 10:13:34;92125.00;0.31;159.98;0.00;0.00;0.62;;;;;32.80;1.00;;;;;;2280354;61;1054;-89
2023/09/12 10:16:04;13781.00;0.05;24.50;0.00;0.00;0.62;;;;;33.10;1.00;;;;;;2280357;61;1023;-90
2023/09/12 10:18:40;0.00;0.00;0.62;0.00;0.00;0.62;;;;;33.30;1.00;;;;;;2280226;61;1386;-89
2023/09/12 10:21:16;90472.00;0.30;157.12;12597.00;0.04;22.45;;;;;33.10;1.00;;;;;;2280295;61;1990;-89
2023/09/12 10:26:18;260913.00;0.87;450.72;0.00;0.00;0.62;;;;;32.50;1.00;;;;;;2278055;61;1426;-89
2023/09/12 10:28:47;53286.00;0.18;92.87;0.00;0.00;0.62;;;;;32.60;1.00;;;;;;2276246;61;1740;-89
2023/09/12 10:31:16;82241.00;0.27;142.91;0.00;0.00;0.62;;;;;33.00;1.00;;;;;;2276369;61;923;-90
2023/09/12 10:33:44;123930.00;0.41;214.86;0.00;0.00;0.62;;;;;33.10;1.00;;;;;;2276354;61;1015;-88
2023/09/12 10:36:13;0.00;0.00;0.62;0.00;0.00;0.62;;;;;33.20;1.00;;;;;;2276266;61;1694;-89
2023/09/12 10:38:44;251763.00;0.84;434.98;0.00;0.00;0.62;;;;;33.10;1.00;;;;;;2276390;61;1417;-89
2023/09/12 10:41:13;207252.00;0.69;358.41;54842.00;0.18;95.56;;;;;33.10;1.00;;;;;;2276695;61;1910;-90
2023/09/12 10:43:46;166702.00;0.56;288.59;67055.00;0.22;116.67;;;;;33.00;1.00;;;;;;2276875;61;1110;-91
2023/09/12 10:46:13;176206.00;0.59;304.96;59369.00;0.20;103.39;;;;;33.50;1.00;;;;;;2276988;61;1103;-88
2023/09/12 10:48:41;338338.00;1.13;583.82;55438.00;0.18;96.59;;;;;33.60;1.00;;;;;;2276938;61;1586;-89
2023/09/12 10:51:09;175465.00;0.58;303.68;45727.00;0.15;79.80;;;;;33.60;1.00;;;;;;2277009;61;984;-90
2023/09/12 10:53:37;353599.00;1.18;610.05;91421.00;0.30;158.76;;;;;34.00;1.00;;;;;;2277049;61;946;-90